sensor_id;sensor_type;location;lat;lon;timestamp;temperature;humidity
2409;DHT22;8463;48.094;7.970;2024-01-06T00:01:16;7.60;1.00
2409;DHT22;8463;48.094;7.970;2024-01-06T00:03:42;7.60;1.00
2409;DHT22;8463;48.094;7.970;2024-01-06T00:06:08;7.60;1.00
2409;DHT22;8463;48.094;7.970;2024-01-06T00:08:36;7.50;1.00
2409;DHT22;8463;48.094;7.970;2024-01-06T00:11:02;7.50;1.00
2409;DHT22;8463;48.094;7.970;2024-01-06T00:13:28;7.50;1.00
2409;DHT22;8463;48.094;7.970;2024-01-06T00:15:53;7.60;1.00
2409;DHT22;8463;48.094;7.970;2024-01-06T00:18:19;7.50;1.00
2409;DHT22;8463;48.094;7.970;2024-01-06T00:20:45;7.50;1.00
2409;DHT22;8463;48.094;7.970;2024-01-06T00:23:10;7.40;1.00
2409;DHT22;8463;48.094;7.970;2024-01-06T00:25:36;7.40;1.00
2409;DHT22;8463;48.094;7.970;2024-01-06T00:28:02;7.30;1.00
2409;DHT22;8463;48.094;7.970;2024-01-06T00:30:27;7.30;1.00
2409;DHT22;8463;48.094;7.970;2024-01-06T00:32:53;7.20;1.00
2409;DHT22;8463;48.094;7.970;2024-01-06T00:35:18;7.20;1.00
2409;DHT22;8463;48.094;7.970;2024-01-06T00:37:45;7.20;1.00
2409;DHT22;8463;48.094;7.970;2024-01-06T00:40:11;7.20;1.00
2409;DHT22;8463;48.094;7.970;2024-01-06T00:42:36;7.20;1.00
2409;DHT22;8463;48.094;7.970;2024-01-06T00:45:02;7.20;1.00
2409;DHT22;8463;48.094;7.970;2024-01-06T00:47:29;7.20;1.00
2409;DHT22;8463;48.094;7.970;2024-01-06T00:49:55;7.30;1.00
2409;DHT22;8463;48.094;7.970;2024-01-06T00:52:20;7.30;1.00
2409;DHT22;8463;48.094;7.970;2024-01-06T00:54:46;7.30;1.00
2409;DHT22;8463;48.094;7.970;2024-01-06T00:57:12;7.20;1.00
2409;DHT22;8463;48.094;7.970;2024-01-06T00:59:38;7.20;1.00
2409;DHT22;8463;48.094;7.970;2024-01-06T01:02:04;7.20;1.00
2409;DHT22;8463;48.094;7.970;2024-01-06T01:04:29;7.20;1.00
2409;DHT22;8463;48.094;7.970;2024-01-06T01:06:55;7.20;1.00
2409;DHT22;8463;48.094;7.970;2024-01-06T01:09:21;7.30;1.00
2409;DHT22;8463;48.094;7.970;2024-01-06T01:11:46;7.30;1.00
2409;DHT22;8463;48.094;7.970;2024-01-06T01:14:14;7.20;1.00
2409;DHT22;8463;48.094;7.970;2024-01-06T01:16:40;7.20;1.00
2409;DHT22;8463;48.094;7.970;2024-01-06T01:19:05;7.30;1.00
2409;DHT22;8463;48.094;7.970;2024-01-06T01:21:31;7.20;1.00
2409;DHT22;8463;48.094;7.970;2024-01-06T01:23:57;7.10;1.00
2409;DHT22;8463;48.094;7.970;2024-01-06T01:26:22;7.10;1.00
2409;DHT22;8463;48.094;7.970;2024-01-06T01:28:48;6.90;1.00
2409;DHT22;8463;48.094;7.970;2024-01-06T01:31:13;6.90;1.00
2409;DHT22;8463;48.094;7.970;2024-01-06T01:33:40;6.70;1.00
2409;DHT22;8463;48.094;7.970;2024-01-06T01:36:06;6.80;1.00
2409;DHT22;8463;48.094;7.970;2024-01-06T01:38:31;6.80;1.00
2409;DHT22;8463;48.094;7.970;2024-01-06T01:40:57;6.90;1.00
2409;DHT22;8463;48.094;7.970;2024-01-06T01:43:24;6.90;1.00
2409;DHT22;8463;48.094;7.970;2024-01-06T01:45:56;7.00;1.00
2409;DHT22;8463;48.094;7.970;2024-01-06T01:48:22;7.00;1.00
2409;DHT22;8463;48.094;7.970;2024-01-06T01:50:49;7.10;1.00
2409;DHT22;8463;48.094;7.970;2024-01-06T01:53:15;7.10;1.00
2409;DHT22;8463;48.094;7.970;2024-01-06T01:55:42;7.10;1.00
2409;DHT22;8463;48.094;7.970;2024-01-06T01:58:10;7.10;1.00
2409;DHT22;8463;48.094;7.970;2024-01-06T02:00:37;7.00;1.00
2409;DHT22;8463;48.094;7.970;2024-01-06T02:03:06;7.10;1.00
2409;DHT22;8463;48.094;7.970;2024-01-06T02:05:33;6.90;1.00
2409;DHT22;8463;48.094;7.970;2024-01-06T02:07:58;6.90;1.00
2409;DHT22;8463;48.094;7.970;2024-01-06T02:10:24;6.80;1.00
2409;DHT22;8463;48.094;7.970;2024-01-06T02:12:50;6.90;1.00
2409;DHT22;8463;48.094;7.970;2024-01-06T02:15:17;6.90;1.00
2409;DHT22;8463;48.094;7.970;2024-01-06T02:17:43;6.90;1.00
2409;DHT22;8463;48.094;7.970;2024-01-06T02:20:10;6.90;1.00
2409;DHT22;8463;48.094;7.970;2024-01-06T02:22:37;7.00;1.00
2409;DHT22;8463;48.094;7.970;2024-01-06T02:25:05;7.00;1.00
2409;DHT22;8463;48.094;7.970;2024-01-06T02:27:40;7.00;1.00
2409;DHT22;8463;48.094;7.970;2024-01-06T02:30:06;7.10;1.00
2409;DHT22;8463;48.094;7.970;2024-01-06T02:32:33;7.00;1.00
2409;DHT22;8463;48.094;7.970;2024-01-06T02:34:58;7.00;1.00
2409;DHT22;8463;48.094;7.970;2024-01-06T02:37:24;7.00;1.00
2409;DHT22;8463;48.094;7.970;2024-01-06T02:39:49;6.90;1.00
2409;DHT22;8463;48.094;7.970;2024-01-06T02:42:15;6.80;1.00
2409;DHT22;8463;48.094;7.970;2024-01-06T02:44:41;6.90;1.00
2409;DHT22;8463;48.094;7.970;2024-01-06T02:47:07;6.90;1.00
2409;DHT22;8463;48.094;7.970;2024-01-06T02:49:32;6.80;1.00
2409;DHT22;8463;48.094;7.970;2024-01-06T02:51:58;6.80;1.00
2409;DHT22;8463;48.094;7.970;2024-01-06T02:54:23;6.90;1.00
2409;DHT22;8463;48.094;7.970;2024-01-06T02:56:49;6.90;1.00
2409;DHT22;8463;48.094;7.970;2024-01-06T02:59:15;6.80;1.00
2409;DHT22;8463;48.094;7.970;2024-01-06T03:01:40;6.70;1.00
2409;DHT22;8463;48.094;7.970;2024-01-06T03:04:06;6.80;1.00
2409;DHT22;8463;48.094;7.970;2024-01-06T03:06:32;6.80;1.00
2409;DHT22;8463;48.094;7.970;2024-01-06T03:08:58;6.90;1.00
2409;DHT22;8463;48.094;7.970;2024-01-06T03:11:23;6.90;1.00
2409;DHT22;8463;48.094;7.970;2024-01-06T03:13:49;6.90;1.00
2409;DHT22;8463;48.094;7.970;2024-01-06T03:16:15;6.90;1.00
2409;DHT22;8463;48.094;7.970;2024-01-06T03:18:40;6.80;1.00
2409;DHT22;8463;48.094;7.970;2024-01-06T03:21:19;6.80;1.00
2409;DHT22;8463;48.094;7.970;2024-01-06T03:23:46;6.80;1.00
2409;DHT22;8463;48.094;7.970;2024-01-06T03:26:12;6.80;1.00
2409;DHT22;8463;48.094;7.970;2024-01-06T03:28:37;6.80;1.00
2409;DHT22;8463;48.094;7.970;2024-01-06T03:31:03;6.80;1.00
2409;DHT22;8463;48.094;7.970;2024-01-06T03:33:29;6.80;1.00
2409;DHT22;8463;48.094;7.970;2024-01-06T03:35:54;6.90;1.00
2409;DHT22;8463;48.094;7.970;2024-01-06T03:38:20;6.80;1.00
2409;DHT22;8463;48.094;7.970;2024-01-06T03:40:45;6.80;1.00
2409;DHT22;8463;48.094;7.970;2024-01-06T03:43:11;6.80;1.00
2409;DHT22;8463;48.094;7.970;2024-01-06T03:45:37;6.80;1.00
2409;DHT22;8463;48.094;7.970;2024-01-06T03:48:02;6.80;1.00
2409;DHT22;8463;48.094;7.970;2024-01-06T03:50:28;6.70;1.00
2409;DHT22;8463;48.094;7.970;2024-01-06T03:52:53;6.70;1.00
2409;DHT22;8463;48.094;7.970;2024-01-06T03:55:19;6.70;1.00
2409;DHT22;8463;48.094;7.970;2024-01-06T03:57:45;6.60;1.00
2409;DHT22;8463;48.094;7.970;2024-01-06T04:00:11;6.60;1.00
2409;DHT22;8463;48.094;7.970;2024-01-06T04:02:36;6.60;1.00
2409;DHT22;8463;48.094;7.970;2024-01-06T04:05:04;6.60;1.00
2409;DHT22;8463;48.094;7.970;2024-01-06T04:07:30;6.60;1.00
2409;DHT22;8463;48.094;7.970;2024-01-06T04:09:56;6.50;1.00
2409;DHT22;8463;48.094;7.970;2024-01-06T04:12:22;6.50;1.00
2409;DHT22;8463;48.094;7.970;2024-01-06T04:14:47;6.50;1.00
2409;DHT22;8463;48.094;7.970;2024-01-06T04:17:13;6.60;1.00
2409;DHT22;8463;48.094;7.970;2024-01-06T04:19:38;6.60;1.00
2409;DHT22;8463;48.094;7.970;2024-01-06T04:22:04;6.60;1.00
2409;DHT22;8463;48.094;7.970;2024-01-06T04:24:30;6.70;1.00
2409;DHT22;8463;48.094;7.970;2024-01-06T04:26:55;6.70;1.00
2409;DHT22;8463;48.094;7.970;2024-01-06T04:29:21;6.60;1.00
2409;DHT22;8463;48.094;7.970;2024-01-06T04:31:47;6.70;1.00
2409;DHT22;8463;48.094;7.970;2024-01-06T04:34:12;6.60;1.00
2409;DHT22;8463;48.094;7.970;2024-01-06T04:36:38;6.60;1.00
2409;DHT22;8463;48.094;7.970;2024-01-06T04:39:03;6.60;1.00
2409;DHT22;8463;48.094;7.970;2024-01-06T04:41:29;6.60;1.00
2409;DHT22;8463;48.094;7.970;2024-01-06T04:43:55;6.60;1.00
2409;DHT22;8463;48.094;7.970;2024-01-06T04:46:20;6.50;1.00
2409;DHT22;8463;48.094;7.970;2024-01-06T04:48:47;6.60;1.00
2409;DHT22;8463;48.094;7.970;2024-01-06T04:51:12;6.50;1.00
2409;DHT22;8463;48.094;7.970;2024-01-06T04:53:39;6.70;1.00
2409;DHT22;8463;48.094;7.970;2024-01-06T04:56:04;6.50;1.00
2409;DHT22;8463;48.094;7.970;2024-01-06T04:58:30;6.50;1.00
2409;DHT22;8463;48.094;7.970;2024-01-06T05:00:56;6.40;1.00
2409;DHT22;8463;48.094;7.970;2024-01-06T05:03:21;6.50;1.00
2409;DHT22;8463;48.094;7.970;2024-01-06T05:05:47;6.50;1.00
2409;DHT22;8463;48.094;7.970;2024-01-06T05:08:13;6.40;1.00
2409;DHT22;8463;48.094;7.970;2024-01-06T05:10:38;6.30;1.00
2409;DHT22;8463;48.094;7.970;2024-01-06T05:13:04;6.30;1.00
2409;DHT22;8463;48.094;7.970;2024-01-06T05:15:30;6.30;1.00
2409;DHT22;8463;48.094;7.970;2024-01-06T05:17:55;6.30;1.00
2409;DHT22;8463;48.094;7.970;2024-01-06T05:20:21;6.30;1.00
2409;DHT22;8463;48.094;7.970;2024-01-06T05:22:46;6.40;1.00
2409;DHT22;8463;48.094;7.970;2024-01-06T05:25:12;6.30;1.00
2409;DHT22;8463;48.094;7.970;2024-01-06T05:27:37;6.30;1.00
2409;DHT22;8463;48.094;7.970;2024-01-06T05:30:03;6.30;1.00
2409;DHT22;8463;48.094;7.970;2024-01-06T05:32:29;6.30;1.00
2409;DHT22;8463;48.094;7.970;2024-01-06T05:34:55;6.30;1.00
2409;DHT22;8463;48.094;7.970;2024-01-06T05:37:20;6.40;1.00
2409;DHT22;8463;48.094;7.970;2024-01-06T05:39:46;6.30;1.00
2409;DHT22;8463;48.094;7.970;2024-01-06T05:42:13;6.40;1.00
2409;DHT22;8463;48.094;7.970;2024-01-06T05:44:40;6.40;1.00
2409;DHT22;8463;48.094;7.970;2024-01-06T05:47:06;6.40;1.00
2409;DHT22;8463;48.094;7.970;2024-01-06T05:49:32;6.40;1.00
2409;DHT22;8463;48.094;7.970;2024-01-06T05:51:57;6.40;1.00
2409;DHT22;8463;48.094;7.970;2024-01-06T05:54:23;6.30;1.00
2409;DHT22;8463;48.094;7.970;2024-01-06T05:56:49;6.30;1.00
2409;DHT22;8463;48.094;7.970;2024-01-06T05:59:14;6.40;1.00
2409;DHT22;8463;48.094;7.970;2024-01-06T06:01:40;6.30;1.00
2409;DHT22;8463;48.094;7.970;2024-01-06T06:04:05;6.30;1.00
2409;DHT22;8463;48.094;7.970;2024-01-06T06:06:31;6.40;1.00
2409;DHT22;8463;48.094;7.970;2024-01-06T06:08:58;6.30;1.00
2409;DHT22;8463;48.094;7.970;2024-01-06T06:11:23;6.40;1.00
2409;DHT22;8463;48.094;7.970;2024-01-06T06:13:49;6.30;1.00
2409;DHT22;8463;48.094;7.970;2024-01-06T06:16:15;6.30;1.00
2409;DHT22;8463;48.094;7.970;2024-01-06T06:18:40;6.30;1.00
2409;DHT22;8463;48.094;7.970;2024-01-06T06:21:07;6.30;1.00
2409;DHT22;8463;48.094;7.970;2024-01-06T06:23:35;6.30;1.00
2409;DHT22;8463;48.094;7.970;2024-01-06T06:26:08;6.40;1.00
2409;DHT22;8463;48.094;7.970;2024-01-06T06:28:34;6.30;1.00
2409;DHT22;8463;48.094;7.970;2024-01-06T06:31:03;6.30;1.00
2409;DHT22;8463;48.094;7.970;2024-01-06T06:33:29;6.20;1.00
2409;DHT22;8463;48.094;7.970;2024-01-06T06:35:55;6.30;1.00
2409;DHT22;8463;48.094;7.970;2024-01-06T06:38:20;6.30;1.00
2409;DHT22;8463;48.094;7.970;2024-01-06T06:40:47;6.20;1.00
2409;DHT22;8463;48.094;7.970;2024-01-06T06:43:13;6.20;1.00
2409;DHT22;8463;48.094;7.970;2024-01-06T06:45:39;6.10;1.00
2409;DHT22;8463;48.094;7.970;2024-01-06T06:48:05;6.10;1.00
2409;DHT22;8463;48.094;7.970;2024-01-06T06:50:30;6.20;1.00
2409;DHT22;8463;48.094;7.970;2024-01-06T06:52:56;6.20;1.00
2409;DHT22;8463;48.094;7.970;2024-01-06T06:55:22;6.20;1.00
2409;DHT22;8463;48.094;7.970;2024-01-06T06:57:47;6.40;1.00
2409;DHT22;8463;48.094;7.970;2024-01-06T07:00:13;6.10;1.00
2409;DHT22;8463;48.094;7.970;2024-01-06T07:02:40;6.10;1.00
2409;DHT22;8463;48.094;7.970;2024-01-06T07:05:06;6.20;1.00
2409;DHT22;8463;48.094;7.970;2024-01-06T07:07:32;6.10;1.00
2409;DHT22;8463;48.094;7.970;2024-01-06T07:10:00;6.10;1.00
2409;DHT22;8463;48.094;7.970;2024-01-06T07:12:26;6.00;1.00
2409;DHT22;8463;48.094;7.970;2024-01-06T07:14:53;6.70;1.00
2409;DHT22;8463;48.094;7.970;2024-01-06T07:17:18;6.10;1.00
2409;DHT22;8463;48.094;7.970;2024-01-06T07:19:44;6.10;1.00
2409;DHT22;8463;48.094;7.970;2024-01-06T07:22:10;6.10;1.00
2409;DHT22;8463;48.094;7.970;2024-01-06T07:24:36;6.20;1.00
2409;DHT22;8463;48.094;7.970;2024-01-06T07:27:02;6.20;1.00
2409;DHT22;8463;48.094;7.970;2024-01-06T07:29:28;6.20;1.00
2409;DHT22;8463;48.094;7.970;2024-01-06T07:31:54;6.20;1.00
2409;DHT22;8463;48.094;7.970;2024-01-06T07:34:20;6.20;1.00
2409;DHT22;8463;48.094;7.970;2024-01-06T07:36:45;6.10;1.00
2409;DHT22;8463;48.094;7.970;2024-01-06T07:39:11;6.10;1.00
2409;DHT22;8463;48.094;7.970;2024-01-06T07:41:37;6.10;1.00
2409;DHT22;8463;48.094;7.970;2024-01-06T07:44:02;6.20;1.00
2409;DHT22;8463;48.094;7.970;2024-01-06T07:46:28;6.20;1.00
2409;DHT22;8463;48.094;7.970;2024-01-06T07:48:54;6.20;1.00
2409;DHT22;8463;48.094;7.970;2024-01-06T07:51:20;6.20;1.00
2409;DHT22;8463;48.094;7.970;2024-01-06T07:53:45;6.20;1.00
2409;DHT22;8463;48.094;7.970;2024-01-06T07:56:11;6.30;1.00
2409;DHT22;8463;48.094;7.970;2024-01-06T07:58:37;7.40;1.00
2409;DHT22;8463;48.094;7.970;2024-01-06T08:01:02;7.70;1.00
2409;DHT22;8463;48.094;7.970;2024-01-06T08:03:28;7.60;1.00
2409;DHT22;8463;48.094;7.970;2024-01-06T08:05:53;7.40;1.00
2409;DHT22;8463;48.094;7.970;2024-01-06T08:08:19;7.10;1.00
2409;DHT22;8463;48.094;7.970;2024-01-06T08:10:46;7.00;1.00
2409;DHT22;8463;48.094;7.970;2024-01-06T08:13:12;6.80;1.00
2409;DHT22;8463;48.094;7.970;2024-01-06T08:15:38;6.70;1.00
2409;DHT22;8463;48.094;7.970;2024-01-06T08:18:04;6.70;1.00
2409;DHT22;8463;48.094;7.970;2024-01-06T08:20:30;6.60;1.00
2409;DHT22;8463;48.094;7.970;2024-01-06T08:22:55;6.60;1.00
2409;DHT22;8463;48.094;7.970;2024-01-06T08:25:21;6.60;1.00
2409;DHT22;8463;48.094;7.970;2024-01-06T08:27:46;6.60;1.00
2409;DHT22;8463;48.094;7.970;2024-01-06T08:30:13;6.50;1.00
2409;DHT22;8463;48.094;7.970;2024-01-06T08:32:38;6.50;1.00
2409;DHT22;8463;48.094;7.970;2024-01-06T08:35:04;6.50;1.00
2409;DHT22;8463;48.094;7.970;2024-01-06T08:37:30;6.40;1.00
2409;DHT22;8463;48.094;7.970;2024-01-06T08:39:56;6.50;1.00
2409;DHT22;8463;48.094;7.970;2024-01-06T08:42:21;6.60;1.00
2409;DHT22;8463;48.094;7.970;2024-01-06T08:44:50;6.60;1.00
2409;DHT22;8463;48.094;7.970;2024-01-06T08:47:15;6.60;1.00
2409;DHT22;8463;48.094;7.970;2024-01-06T08:49:41;6.60;1.00
2409;DHT22;8463;48.094;7.970;2024-01-06T08:52:06;6.60;1.00
2409;DHT22;8463;48.094;7.970;2024-01-06T08:54:32;6.70;1.00
2409;DHT22;8463;48.094;7.970;2024-01-06T08:56:58;6.70;1.00
2409;DHT22;8463;48.094;7.970;2024-01-06T08:59:23;6.70;1.00
2409;DHT22;8463;48.094;7.970;2024-01-06T09:01:49;6.80;1.00
2409;DHT22;8463;48.094;7.970;2024-01-06T09:04:15;6.80;1.00
2409;DHT22;8463;48.094;7.970;2024-01-06T09:06:41;6.80;1.00
2409;DHT22;8463;48.094;7.970;2024-01-06T09:09:07;6.70;1.00
2409;DHT22;8463;48.094;7.970;2024-01-06T09:11:34;6.70;1.00
2409;DHT22;8463;48.094;7.970;2024-01-06T09:13:59;6.80;1.00
2409;DHT22;8463;48.094;7.970;2024-01-06T09:16:26;6.80;1.00
2409;DHT22;8463;48.094;7.970;2024-01-06T09:18:52;6.80;1.00
2409;DHT22;8463;48.094;7.970;2024-01-06T09:21:17;6.80;1.00
2409;DHT22;8463;48.094;7.970;2024-01-06T09:23:43;6.90;1.00
2409;DHT22;8463;48.094;7.970;2024-01-06T09:26:11;6.90;1.00
2409;DHT22;8463;48.094;7.970;2024-01-06T09:28:37;6.90;1.00
2409;DHT22;8463;48.094;7.970;2024-01-06T09:31:03;6.90;1.00
2409;DHT22;8463;48.094;7.970;2024-01-06T09:33:30;6.90;1.00
2409;DHT22;8463;48.094;7.970;2024-01-06T09:35:55;6.70;1.00
2409;DHT22;8463;48.094;7.970;2024-01-06T09:38:21;6.60;1.00
2409;DHT22;8463;48.094;7.970;2024-01-06T09:40:48;6.60;1.00
2409;DHT22;8463;48.094;7.970;2024-01-06T09:43:14;6.70;1.00
2409;DHT22;8463;48.094;7.970;2024-01-06T09:45:40;6.80;1.00
2409;DHT22;8463;48.094;7.970;2024-01-06T09:48:13;6.90;1.00
2409;DHT22;8463;48.094;7.970;2024-01-06T09:50:43;7.20;1.00
2409;DHT22;8463;48.094;7.970;2024-01-06T09:53:13;7.10;1.00
2409;DHT22;8463;48.094;7.970;2024-01-06T09:55:39;7.20;1.00
2409;DHT22;8463;48.094;7.970;2024-01-06T09:58:05;7.20;1.00
2409;DHT22;8463;48.094;7.970;2024-01-06T10:00:32;7.00;1.00
2409;DHT22;8463;48.094;7.970;2024-01-06T10:02:57;7.00;1.00
2409;DHT22;8463;48.094;7.970;2024-01-06T10:05:23;7.10;1.00
2409;DHT22;8463;48.094;7.970;2024-01-06T10:07:49;7.20;1.00
2409;DHT22;8463;48.094;7.970;2024-01-06T10:10:15;7.20;1.00
2409;DHT22;8463;48.094;7.970;2024-01-06T10:12:42;7.10;1.00
2409;DHT22;8463;48.094;7.970;2024-01-06T10:15:09;7.10;1.00
2409;DHT22;8463;48.094;7.970;2024-01-06T10:17:44;7.10;1.00
2409;DHT22;8463;48.094;7.970;2024-01-06T10:20:11;7.00;1.00
2409;DHT22;8463;48.094;7.970;2024-01-06T10:22:40;6.90;1.00
2409;DHT22;8463;48.094;7.970;2024-01-06T10:25:07;6.90;1.00
2409;DHT22;8463;48.094;7.970;2024-01-06T10:27:37;6.80;1.00
2409;DHT22;8463;48.094;7.970;2024-01-06T10:30:05;6.70;1.00
2409;DHT22;8463;48.094;7.970;2024-01-06T10:32:32;6.70;1.00
2409;DHT22;8463;48.094;7.970;2024-01-06T10:34:58;6.70;1.00
2409;DHT22;8463;48.094;7.970;2024-01-06T10:37:26;6.70;1.00
2409;DHT22;8463;48.094;7.970;2024-01-06T10:40:12;6.70;1.00
2409;DHT22;8463;48.094;7.970;2024-01-06T10:42:39;6.70;1.00
2409;DHT22;8463;48.094;7.970;2024-01-06T10:45:09;6.70;1.00
2409;DHT22;8463;48.094;7.970;2024-01-06T10:47:36;6.70;1.00
2409;DHT22;8463;48.094;7.970;2024-01-06T10:50:02;6.90;1.00
2409;DHT22;8463;48.094;7.970;2024-01-06T10:52:29;7.00;1.00
2409;DHT22;8463;48.094;7.970;2024-01-06T10:54:55;7.00;1.00
2409;DHT22;8463;48.094;7.970;2024-01-06T10:57:22;6.90;1.00
2409;DHT22;8463;48.094;7.970;2024-01-06T10:59:52;6.90;1.00
2409;DHT22;8463;48.094;7.970;2024-01-06T11:02:20;7.00;1.00
2409;DHT22;8463;48.094;7.970;2024-01-06T11:04:46;7.00;1.00
2409;DHT22;8463;48.094;7.970;2024-01-06T11:07:18;7.00;1.00
2409;DHT22;8463;48.094;7.970;2024-01-06T11:10:04;7.00;1.00
2409;DHT22;8463;48.094;7.970;2024-01-06T11:12:31;7.20;1.00
2409;DHT22;8463;48.094;7.970;2024-01-06T11:14:57;7.40;1.00
2409;DHT22;8463;48.094;7.970;2024-01-06T11:17:54;7.10;1.00
2409;DHT22;8463;48.094;7.970;2024-01-06T11:20:23;6.90;1.00
2409;DHT22;8463;48.094;7.970;2024-01-06T11:22:50;7.30;1.00
2409;DHT22;8463;48.094;7.970;2024-01-06T11:25:21;7.80;1.00
2409;DHT22;8463;48.094;7.970;2024-01-06T11:27:48;7.80;1.00
2409;DHT22;8463;48.094;7.970;2024-01-06T11:30:23;7.50;1.00
2409;DHT22;8463;48.094;7.970;2024-01-06T11:32:54;7.30;1.00
2409;DHT22;8463;48.094;7.970;2024-01-06T11:35:21;7.00;1.00
2409;DHT22;8463;48.094;7.970;2024-01-06T11:42:47;6.70;1.00
2409;DHT22;8463;48.094;7.970;2024-01-06T11:45:14;6.60;1.00
2409;DHT22;8463;48.094;7.970;2024-01-06T11:47:40;6.60;1.00
2409;DHT22;8463;48.094;7.970;2024-01-06T11:50:12;6.60;1.00
2409;DHT22;8463;48.094;7.970;2024-01-06T11:52:38;6.60;1.00
2409;DHT22;8463;48.094;7.970;2024-01-06T11:55:05;6.60;1.00
2409;DHT22;8463;48.094;7.970;2024-01-06T11:57:34;6.70;1.00
2409;DHT22;8463;48.094;7.970;2024-01-06T12:00:00;6.80;1.00
2409;DHT22;8463;48.094;7.970;2024-01-06T12:02:25;6.80;1.00
2409;DHT22;8463;48.094;7.970;2024-01-06T12:04:52;6.70;1.00
2409;DHT22;8463;48.094;7.970;2024-01-06T12:07:20;6.70;1.00
2409;DHT22;8463;48.094;7.970;2024-01-06T12:09:48;6.70;1.00
2409;DHT22;8463;48.094;7.970;2024-01-06T12:12:17;6.60;1.00
2409;DHT22;8463;48.094;7.970;2024-01-06T12:14:43;6.60;1.00
2409;DHT22;8463;48.094;7.970;2024-01-06T12:17:11;6.60;1.00
2409;DHT22;8463;48.094;7.970;2024-01-06T12:19:38;6.50;1.00
2409;DHT22;8463;48.094;7.970;2024-01-06T12:22:05;6.60;1.00
2409;DHT22;8463;48.094;7.970;2024-01-06T12:24:31;6.50;1.00
2409;DHT22;8463;48.094;7.970;2024-01-06T12:26:57;6.50;1.00
2409;DHT22;8463;48.094;7.970;2024-01-06T12:29:26;6.40;1.00
2409;DHT22;8463;48.094;7.970;2024-01-06T12:31:52;6.40;1.00
2409;DHT22;8463;48.094;7.970;2024-01-06T12:34:18;6.40;1.00
2409;DHT22;8463;48.094;7.970;2024-01-06T12:36:44;6.50;1.00
2409;DHT22;8463;48.094;7.970;2024-01-06T12:39:13;6.50;1.00
2409;DHT22;8463;48.094;7.970;2024-01-06T12:41:42;6.50;1.00
2409;DHT22;8463;48.094;7.970;2024-01-06T12:44:09;6.50;1.00
2409;DHT22;8463;48.094;7.970;2024-01-06T12:46:35;6.50;1.00
2409;DHT22;8463;48.094;7.970;2024-01-06T12:49:03;6.50;1.00
2409;DHT22;8463;48.094;7.970;2024-01-06T12:51:28;6.40;1.00
2409;DHT22;8463;48.094;7.970;2024-01-06T12:53:54;6.40;1.00
2409;DHT22;8463;48.094;7.970;2024-01-06T12:56:20;6.40;1.00
2409;DHT22;8463;48.094;7.970;2024-01-06T12:58:46;6.40;1.00
2409;DHT22;8463;48.094;7.970;2024-01-06T13:01:11;6.40;1.00
2409;DHT22;8463;48.094;7.970;2024-01-06T13:03:37;6.40;1.00
2409;DHT22;8463;48.094;7.970;2024-01-06T13:06:03;6.40;1.00
2409;DHT22;8463;48.094;7.970;2024-01-06T13:08:29;6.50;1.00
2409;DHT22;8463;48.094;7.970;2024-01-06T13:10:55;6.60;1.00
2409;DHT22;8463;48.094;7.970;2024-01-06T13:13:21;6.50;1.00
2409;DHT22;8463;48.094;7.970;2024-01-06T13:15:47;6.40;1.00
2409;DHT22;8463;48.094;7.970;2024-01-06T13:18:13;6.50;1.00
2409;DHT22;8463;48.094;7.970;2024-01-06T13:20:39;6.50;1.00
2409;DHT22;8463;48.094;7.970;2024-01-06T13:23:07;6.50;1.00
2409;DHT22;8463;48.094;7.970;2024-01-06T13:25:34;6.50;1.00
2409;DHT22;8463;48.094;7.970;2024-01-06T13:28:00;6.60;1.00
2409;DHT22;8463;48.094;7.970;2024-01-06T13:30:25;6.50;1.00
2409;DHT22;8463;48.094;7.970;2024-01-06T13:32:54;6.60;1.00
2409;DHT22;8463;48.094;7.970;2024-01-06T13:35:20;6.60;1.00
2409;DHT22;8463;48.094;7.970;2024-01-06T13:37:47;6.60;1.00
2409;DHT22;8463;48.094;7.970;2024-01-06T13:40:17;6.60;1.00
2409;DHT22;8463;48.094;7.970;2024-01-06T13:42:46;6.50;1.00
2409;DHT22;8463;48.094;7.970;2024-01-06T13:45:12;6.50;1.00
2409;DHT22;8463;48.094;7.970;2024-01-06T13:47:38;6.50;1.00
2409;DHT22;8463;48.094;7.970;2024-01-06T13:50:08;6.50;1.00
2409;DHT22;8463;48.094;7.970;2024-01-06T13:52:36;6.50;1.00
2409;DHT22;8463;48.094;7.970;2024-01-06T13:55:02;6.50;1.00
2409;DHT22;8463;48.094;7.970;2024-01-06T13:57:54;6.50;1.00
2409;DHT22;8463;48.094;7.970;2024-01-06T14:00:20;6.50;1.00
2409;DHT22;8463;48.094;7.970;2024-01-06T14:02:46;6.50;1.00
2409;DHT22;8463;48.094;7.970;2024-01-06T14:05:15;6.50;1.00
2409;DHT22;8463;48.094;7.970;2024-01-06T14:07:41;6.50;1.00
2409;DHT22;8463;48.094;7.970;2024-01-06T14:10:11;6.50;1.00
2409;DHT22;8463;48.094;7.970;2024-01-06T14:12:38;6.70;1.00
2409;DHT22;8463;48.094;7.970;2024-01-06T14:15:04;6.50;1.00
2409;DHT22;8463;48.094;7.970;2024-01-06T14:17:31;6.50;1.00
2409;DHT22;8463;48.094;7.970;2024-01-06T14:19:57;6.50;1.00
2409;DHT22;8463;48.094;7.970;2024-01-06T14:22:23;6.60;1.00
2409;DHT22;8463;48.094;7.970;2024-01-06T14:24:48;6.60;1.00
2409;DHT22;8463;48.094;7.970;2024-01-06T14:27:15;6.70;1.00
2409;DHT22;8463;48.094;7.970;2024-01-06T14:29:41;6.70;1.00
2409;DHT22;8463;48.094;7.970;2024-01-06T14:32:07;6.70;1.00
2409;DHT22;8463;48.094;7.970;2024-01-06T14:34:32;6.70;1.00
2409;DHT22;8463;48.094;7.970;2024-01-06T14:36:59;6.70;1.00
2409;DHT22;8463;48.094;7.970;2024-01-06T14:39:24;6.60;1.00
2409;DHT22;8463;48.094;7.970;2024-01-06T14:41:50;6.60;1.00
2409;DHT22;8463;48.094;7.970;2024-01-06T14:44:17;6.60;1.00
2409;DHT22;8463;48.094;7.970;2024-01-06T14:46:48;6.70;1.00
2409;DHT22;8463;48.094;7.970;2024-01-06T14:49:18;6.70;1.00
2409;DHT22;8463;48.094;7.970;2024-01-06T14:51:44;6.60;1.00
2409;DHT22;8463;48.094;7.970;2024-01-06T14:54:11;6.70;1.00
2409;DHT22;8463;48.094;7.970;2024-01-06T14:56:39;6.70;1.00
2409;DHT22;8463;48.094;7.970;2024-01-06T14:59:07;6.70;1.00
2409;DHT22;8463;48.094;7.970;2024-01-06T15:01:32;6.60;1.00
2409;DHT22;8463;48.094;7.970;2024-01-06T15:03:58;6.60;1.00
2409;DHT22;8463;48.094;7.970;2024-01-06T15:06:24;6.60;1.00
2409;DHT22;8463;48.094;7.970;2024-01-06T15:08:49;6.60;1.00
2409;DHT22;8463;48.094;7.970;2024-01-06T15:11:16;6.70;1.00
2409;DHT22;8463;48.094;7.970;2024-01-06T15:13:41;6.70;1.00
2409;DHT22;8463;48.094;7.970;2024-01-06T15:16:07;6.50;1.00
2409;DHT22;8463;48.094;7.970;2024-01-06T15:18:35;6.60;1.00
2409;DHT22;8463;48.094;7.970;2024-01-06T15:21:01;6.70;1.00
2409;DHT22;8463;48.094;7.970;2024-01-06T15:23:27;6.50;1.00
2409;DHT22;8463;48.094;7.970;2024-01-06T15:25:55;6.50;1.00
2409;DHT22;8463;48.094;7.970;2024-01-06T15:28:21;6.40;1.00
2409;DHT22;8463;48.094;7.970;2024-01-06T15:30:46;6.50;1.00
2409;DHT22;8463;48.094;7.970;2024-01-06T15:33:12;6.50;1.00
2409;DHT22;8463;48.094;7.970;2024-01-06T15:35:39;6.50;1.00
2409;DHT22;8463;48.094;7.970;2024-01-06T15:38:05;6.40;1.00
2409;DHT22;8463;48.094;7.970;2024-01-06T15:40:31;6.40;1.00
2409;DHT22;8463;48.094;7.970;2024-01-06T15:42:56;6.40;1.00
2409;DHT22;8463;48.094;7.970;2024-01-06T15:45:22;6.50;1.00
2409;DHT22;8463;48.094;7.970;2024-01-06T15:47:48;6.50;1.00
2409;DHT22;8463;48.094;7.970;2024-01-06T15:50:13;6.50;1.00
2409;DHT22;8463;48.094;7.970;2024-01-06T15:52:39;6.50;1.00
2409;DHT22;8463;48.094;7.970;2024-01-06T15:55:05;6.50;1.00
2409;DHT22;8463;48.094;7.970;2024-01-06T15:57:31;6.50;1.00
2409;DHT22;8463;48.094;7.970;2024-01-06T15:59:58;6.50;1.00
2409;DHT22;8463;48.094;7.970;2024-01-06T16:02:24;6.40;1.00
2409;DHT22;8463;48.094;7.970;2024-01-06T16:04:49;6.40;1.00
2409;DHT22;8463;48.094;7.970;2024-01-06T16:07:15;6.40;1.00
2409;DHT22;8463;48.094;7.970;2024-01-06T16:09:41;6.40;1.00
2409;DHT22;8463;48.094;7.970;2024-01-06T16:12:07;6.50;1.00
2409;DHT22;8463;48.094;7.970;2024-01-06T16:14:34;6.50;1.00
2409;DHT22;8463;48.094;7.970;2024-01-06T16:16:59;6.50;1.00
2409;DHT22;8463;48.094;7.970;2024-01-06T16:19:29;6.50;1.00
2409;DHT22;8463;48.094;7.970;2024-01-06T16:21:55;6.50;1.00
2409;DHT22;8463;48.094;7.970;2024-01-06T16:24:22;6.50;1.00
2409;DHT22;8463;48.094;7.970;2024-01-06T16:26:54;6.60;1.00
2409;DHT22;8463;48.094;7.970;2024-01-06T16:29:20;6.60;1.00
2409;DHT22;8463;48.094;7.970;2024-01-06T16:31:45;6.60;1.00
2409;DHT22;8463;48.094;7.970;2024-01-06T16:34:11;6.50;1.00